PWSweather.com
Personal Weather Stations
Station Observations
IBRABANT12
Leuven, BlandenBE 3052

LeuvenBlandenBE 3052

Lat: 50.8252218, Lon: 4.709682799999996

Elevation: 193

Station Type: Davis Vantage Vue

http://www.weerstationblanden.be

Latest ConditionsUpdated 5:20:10 PM GMT+01:01 Wednesday, Jun 29, 2016
Currently Today's Max Today's Min Today's Average
Temperature 67.1°F19.5°C 69.1°F20.6°C 55.8°F13.2°C 61.2°F16.2°C
Dew Point 53.2°F11.8°C 57.2°F14.0°C 51.9°F11.1°C 53.9°F12.2°C
Winds 5.4 mph SSW8.7 kmh SSW 15.6 mph SW25.1 kmh SW - 8.7 mph 14.0 kmh
Wind Gusts 8.0 mph12.9 kmh 24.0 mph38.6 kmh - -
Humidity 61% 95% 56% 78%
Pressure 29.83 in1010.2 mb 29.89 in1012.2 mb 29.79 in1008.8 mb -
Precipitation - 0.07 in1.8 mm - -
Hour Temp Dew Point Humidity Winds Wind Gusts Pressure Precip Precip Rate Daily Precip Total
05:20 PM 67.1°F19.5°C 53.2°F11.8°C 61% 5.4 mph SSW8.7 kmh SSW 8.0 mph12.9 kmh 29.83 in1010.2 mb - 0.00 in0.0 mm 0.07 in1.8 mm
05:10 PM 67.3°F19.6°C 52.0°F11.1°C 58% 11.6 mph SW18.7 kmh SW 16.0 mph25.7 kmh 29.84 in1010.5 mb - 0.00 in0.0 mm 0.07 in1.8 mm
05:00 PM 67.5°F19.7°C 54.5°F12.5°C 63% 5.4 mph WSW8.7 kmh WSW 14.0 mph22.5 kmh 29.83 in1010.2 mb - 0.00 in0.0 mm 0.07 in1.8 mm
04:50 PM 67.6°F19.8°C 53.7°F12.1°C 61% 6.7 mph SW10.8 kmh SW 10.0 mph16.1 kmh 29.83 in1010.2 mb - 0.00 in0.0 mm 0.07 in1.8 mm
04:40 PM 67.8°F19.9°C 53.4°F11.9°C 60% 7.7 mph SW12.4 kmh SW 9.0 mph14.5 kmh 29.84 in1010.5 mb - 0.00 in0.0 mm 0.07 in1.8 mm
04:30 PM 68.0°F20.0°C 53.1°F11.7°C 59% 7.2 mph SW11.6 kmh SW 11.0 mph17.7 kmh 29.84 in1010.5 mb - 0.00 in0.0 mm 0.07 in1.8 mm
04:20 PM 68.1°F20.1°C 53.7°F12.1°C 60% 6.8 mph SW10.9 kmh SW 12.0 mph19.3 kmh 29.84 in1010.5 mb - 0.00 in0.0 mm 0.07 in1.8 mm
04:10 PM 68.3°F20.2°C 53.4°F11.9°C 59% 6.5 mph SSW10.5 kmh SSW 9.0 mph14.5 kmh 29.84 in1010.5 mb - 0.00 in0.0 mm 0.07 in1.8 mm
04:00 PM 69.1°F20.6°C 54.6°F12.6°C 60% 10.2 mph SW16.4 kmh SW 18.0 mph29.0 kmh 29.84 in1010.5 mb - 0.00 in0.0 mm 0.07 in1.8 mm
03:50 PM 68.6°F20.3°C 53.2°F11.8°C 58% 9.0 mph WSW14.5 kmh WSW 16.0 mph25.7 kmh 29.85 in1010.8 mb - 0.00 in0.0 mm 0.07 in1.8 mm
03:40 PM 68.2°F20.1°C 51.9°F11.1°C 56% 10.2 mph SW16.4 kmh SW 12.0 mph19.3 kmh 29.85 in1010.8 mb - 0.00 in0.0 mm 0.07 in1.8 mm
03:30 PM 68.2°F20.1°C 51.9°F11.1°C 56% 9.7 mph WSW15.6 kmh WSW 13.0 mph20.9 kmh 29.85 in1010.8 mb - 0.00 in0.0 mm 0.07 in1.8 mm
03:20 PM 68.7°F20.4°C 53.8°F12.1°C 59% 8.3 mph SW13.4 kmh SW 13.0 mph20.9 kmh 29.85 in1010.8 mb - 0.00 in0.0 mm 0.07 in1.8 mm
03:10 PM 68.1°F20.1°C 53.7°F12.1°C 60% 6.5 mph SW10.5 kmh SW 10.0 mph16.1 kmh 29.86 in1011.2 mb - 0.00 in0.0 mm 0.07 in1.8 mm
03:00 PM 67.7°F19.8°C 53.3°F11.8°C 60% 7.8 mph SW12.6 kmh SW 15.0 mph24.1 kmh 29.86 in1011.2 mb - 0.00 in0.0 mm 0.07 in1.8 mm
02:50 PM 67.1°F19.5°C 52.7°F11.5°C 60% 8.8 mph SSE14.2 kmh SSE 10.0 mph16.1 kmh 29.86 in1011.2 mb - 0.00 in0.0 mm 0.07 in1.8 mm
02:40 PM 66.8°F19.3°C 53.8°F12.1°C 63% 7.2 mph SSW11.6 kmh SSW 8.0 mph12.9 kmh 29.86 in1011.2 mb - 0.00 in0.0 mm 0.07 in1.8 mm
02:30 PM 66.6°F19.2°C 53.2°F11.8°C 62% 10.5 mph SW16.9 kmh SW 14.0 mph22.5 kmh 29.86 in1011.2 mb - 0.00 in0.0 mm 0.07 in1.8 mm
02:20 PM 67.0°F19.4°C 53.6°F12.0°C 62% 8.5 mph SW13.7 kmh SW 11.0 mph17.7 kmh 29.86 in1011.2 mb - 0.00 in0.0 mm 0.07 in1.8 mm
02:10 PM 66.7°F19.3°C 52.4°F11.3°C 60% 10.2 mph S16.4 kmh S 12.0 mph19.3 kmh 29.86 in1011.2 mb - 0.00 in0.0 mm 0.07 in1.8 mm
02:00 PM 66.9°F19.4°C 53.0°F11.7°C 61% 11.8 mph WSW19.0 kmh WSW 14.0 mph22.5 kmh 29.86 in1011.2 mb - 0.00 in0.0 mm 0.07 in1.8 mm
01:50 PM 67.5°F19.7°C 53.1°F11.7°C 60% 14.1 mph SW22.7 kmh SW 17.0 mph27.4 kmh 29.87 in1011.5 mb - 0.00 in0.0 mm 0.07 in1.8 mm
01:40 PM 66.7°F19.3°C 53.3°F11.8°C 62% 11.8 mph SW19.0 kmh SW 17.0 mph27.4 kmh 29.87 in1011.5 mb - 0.00 in0.0 mm 0.07 in1.8 mm
01:30 PM 66.8°F19.3°C 53.4°F11.9°C 62% 8.2 mph SSW13.2 kmh SSW 12.0 mph19.3 kmh 29.87 in1011.5 mb - 0.00 in0.0 mm 0.07 in1.8 mm
01:20 PM 67.2°F19.6°C 52.8°F11.6°C 60% 10.6 mph W17.1 kmh W 13.0 mph20.9 kmh 29.87 in1011.5 mb - 0.00 in0.0 mm 0.07 in1.8 mm
01:10 PM 66.6°F19.2°C 53.7°F12.1°C 63% 8.3 mph WSW13.4 kmh WSW 11.0 mph17.7 kmh 29.87 in1011.5 mb - 0.00 in0.0 mm 0.07 in1.8 mm
01:00 PM 66.6°F19.2°C 54.0°F12.2°C 64% 8.5 mph SW13.7 kmh SW 12.0 mph19.3 kmh 29.87 in1011.5 mb - 0.00 in0.0 mm 0.07 in1.8 mm
12:50 PM 65.8°F18.8°C 55.0°F12.8°C 68% 11.2 mph SW18.0 kmh SW 16.0 mph25.7 kmh 29.88 in1011.9 mb - 0.00 in0.0 mm 0.07 in1.8 mm
12:40 PM 65.6°F18.7°C 53.9°F12.2°C 66% 11.0 mph SW17.7 kmh SW 14.0 mph22.5 kmh 29.88 in1011.9 mb - 0.00 in0.0 mm 0.07 in1.8 mm
12:30 PM 64.7°F18.2°C 53.5°F11.9°C 67% 12.8 mph SW20.6 kmh SW 15.0 mph24.1 kmh 29.88 in1011.9 mb - 0.00 in0.0 mm 0.07 in1.8 mm
12:20 PM 64.7°F18.2°C 54.2°F12.3°C 69% 5.4 mph SW8.7 kmh SW 12.0 mph19.3 kmh 29.88 in1011.9 mb - 0.00 in0.0 mm 0.07 in1.8 mm
12:10 PM 64.7°F18.2°C 54.3°F12.4°C 69% 7.3 mph SW11.7 kmh SW 10.0 mph16.1 kmh 29.88 in1011.9 mb - 0.00 in0.0 mm 0.07 in1.8 mm
12:00 PM 64.6°F18.1°C 54.2°F12.3°C 69% 8.5 mph SW13.7 kmh SW 12.0 mph19.3 kmh 29.88 in1011.9 mb - 0.00 in0.0 mm 0.07 in1.8 mm
11:50 AM 64.1°F17.8°C 53.7°F12.1°C 69% 9.7 mph SSW15.6 kmh SSW 10.0 mph16.1 kmh 29.88 in1011.9 mb - 0.00 in0.0 mm 0.07 in1.8 mm
11:40 AM 63.7°F17.6°C 54.5°F12.5°C 72% 10.6 mph SW17.1 kmh SW 16.0 mph25.7 kmh 29.88 in1011.9 mb - 0.00 in0.0 mm 0.07 in1.8 mm
11:30 AM 63.4°F17.4°C 53.0°F11.7°C 69% 10.2 mph WSW16.4 kmh WSW 12.0 mph19.3 kmh 29.88 in1011.9 mb - 0.00 in0.0 mm 0.07 in1.8 mm
11:20 AM 63.5°F17.5°C 53.9°F12.2°C 71% 8.5 mph SW13.7 kmh SW 13.0 mph20.9 kmh 29.88 in1011.9 mb - 0.00 in0.0 mm 0.07 in1.8 mm
11:10 AM 63.3°F17.4°C 53.7°F12.1°C 71% 7.9 mph SSW12.7 kmh SSW 12.0 mph19.3 kmh 29.89 in1012.2 mb - 0.00 in0.0 mm 0.07 in1.8 mm
11:00 AM 62.9°F17.2°C 53.4°F11.9°C 71% 10.1 mph SW16.3 kmh SW 15.0 mph24.1 kmh 29.89 in1012.2 mb - 0.00 in0.0 mm 0.07 in1.8 mm
10:50 AM 63.1°F17.3°C 53.1°F11.7°C 70% 12.9 mph WSW20.8 kmh WSW 15.0 mph24.1 kmh 29.88 in1011.9 mb - 0.00 in0.0 mm 0.07 in1.8 mm
10:40 AM 62.9°F17.2°C 53.0°F11.7°C 70% 9.9 mph SW15.9 kmh SW 14.0 mph22.5 kmh 29.88 in1011.9 mb - 0.00 in0.0 mm 0.07 in1.8 mm
10:30 AM 62.5°F16.9°C 52.2°F11.2°C 69% 11.1 mph SW17.9 kmh SW 14.0 mph22.5 kmh 29.88 in1011.9 mb - 0.00 in0.0 mm 0.07 in1.8 mm
10:20 AM 62.2°F16.8°C 53.1°F11.7°C 72% 9.5 mph SW15.3 kmh SW 14.0 mph22.5 kmh 29.88 in1011.9 mb - 0.00 in0.0 mm 0.07 in1.8 mm
10:10 AM 61.8°F16.6°C 52.6°F11.4°C 72% 12.9 mph SW20.8 kmh SW 20.0 mph32.2 kmh 29.87 in1011.5 mb - 0.00 in0.0 mm 0.07 in1.8 mm
10:00 AM 61.8°F16.6°C 53.1°F11.7°C 73% 13.4 mph SW21.6 kmh SW 17.0 mph27.4 kmh 29.87 in1011.5 mb - 0.00 in0.0 mm 0.07 in1.8 mm
09:50 AM 61.4°F16.3°C 53.0°F11.7°C 74% 10.2 mph SW16.4 kmh SW 13.0 mph20.9 kmh 29.87 in1011.5 mb - 0.00 in0.0 mm 0.07 in1.8 mm
09:40 AM 61.4°F16.3°C 53.7°F12.1°C 76% 11.0 mph SW17.7 kmh SW 15.0 mph24.1 kmh 29.87 in1011.5 mb - 0.00 in0.0 mm 0.07 in1.8 mm
09:30 AM 60.8°F16.0°C 53.5°F11.9°C 77% 12.6 mph SW20.3 kmh SW 19.0 mph30.6 kmh 29.87 in1011.5 mb - 0.00 in0.0 mm 0.07 in1.8 mm
09:20 AM 60.1°F15.6°C 53.6°F12.0°C 79% 12.7 mph SW20.4 kmh SW 20.0 mph32.2 kmh 29.87 in1011.5 mb - 0.00 in0.0 mm 0.07 in1.8 mm
09:10 AM 59.6°F15.3°C 53.1°F11.7°C 79% 15.6 mph SW25.1 kmh SW 18.0 mph29.0 kmh 29.87 in1011.5 mb - 0.00 in0.0 mm 0.07 in1.8 mm
09:00 AM 59.1°F15.1°C 53.9°F12.2°C 83% 13.4 mph SW21.6 kmh SW 24.0 mph38.6 kmh 29.87 in1011.5 mb - 0.00 in0.0 mm 0.07 in1.8 mm
08:50 AM 58.7°F14.8°C 53.5°F11.9°C 83% 13.4 mph SW21.6 kmh SW 17.0 mph27.4 kmh 29.86 in1011.2 mb - 0.00 in0.0 mm 0.07 in1.8 mm
08:40 AM 58.4°F14.7°C 53.6°F12.0°C 84% 12.7 mph SW20.4 kmh SW 15.0 mph24.1 kmh 29.86 in1011.2 mb - 0.00 in0.0 mm 0.07 in1.8 mm
08:30 AM 58.5°F14.7°C 54.0°F12.2°C 85% 7.4 mph SW11.9 kmh SW 13.0 mph20.9 kmh 29.86 in1011.2 mb - 0.00 in0.0 mm 0.07 in1.8 mm
08:20 AM 58.7°F14.8°C 54.2°F12.3°C 85% 11.0 mph SW17.7 kmh SW 16.0 mph25.7 kmh 29.86 in1011.2 mb - 0.00 in0.0 mm 0.07 in1.8 mm
08:10 AM 58.4°F14.7°C 54.2°F12.3°C 86% 10.6 mph SW17.1 kmh SW 14.0 mph22.5 kmh 29.86 in1011.2 mb - 0.00 in0.0 mm 0.07 in1.8 mm
08:00 AM 57.8°F14.3°C 53.7°F12.1°C 86% 9.4 mph SSW15.1 kmh SSW 12.0 mph19.3 kmh 29.86 in1011.2 mb - 0.00 in0.0 mm 0.07 in1.8 mm
07:50 AM 57.6°F14.2°C 53.8°F12.1°C 87% 9.1 mph SW14.6 kmh SW 12.0 mph19.3 kmh 29.86 in1011.2 mb - 0.00 in0.0 mm 0.07 in1.8 mm
07:40 AM 57.4°F14.1°C 53.6°F12.0°C 87% 9.0 mph WSW14.5 kmh WSW 11.0 mph17.7 kmh 29.85 in1010.8 mb - 0.00 in0.0 mm 0.07 in1.8 mm
07:30 AM 57.4°F14.1°C 53.6°F12.0°C 87% 9.6 mph SW15.4 kmh SW 13.0 mph20.9 kmh 29.85 in1010.8 mb - 0.00 in0.0 mm 0.07 in1.8 mm
07:20 AM 57.3°F14.1°C 53.5°F11.9°C 87% 8.3 mph SW13.4 kmh SW 12.0 mph19.3 kmh 29.85 in1010.8 mb - 0.00 in0.0 mm 0.07 in1.8 mm
07:10 AM 57.2°F14.0°C 53.4°F11.9°C 87% 11.3 mph SSW18.2 kmh SSW 15.0 mph24.1 kmh 29.85 in1010.8 mb - 0.00 in0.0 mm 0.07 in1.8 mm
07:00 AM 57.1°F13.9°C 53.3°F11.8°C 87% 8.9 mph SW14.3 kmh SW 13.0 mph20.9 kmh 29.85 in1010.8 mb - 0.00 in0.0 mm 0.07 in1.8 mm
06:50 AM 57.0°F13.9°C 53.2°F11.8°C 87% 8.1 mph SW13.0 kmh SW 10.0 mph16.1 kmh 29.84 in1010.5 mb - 0.00 in0.0 mm 0.07 in1.8 mm
06:40 AM 56.9°F13.8°C 53.0°F11.7°C 87% 7.9 mph WNW12.7 kmh WNW 12.0 mph19.3 kmh 29.84 in1010.5 mb - 0.00 in0.0 mm 0.07 in1.8 mm
06:30 AM 56.8°F13.8°C 53.0°F11.7°C 87% 8.3 mph SW13.4 kmh SW 10.0 mph16.1 kmh 29.83 in1010.2 mb - 0.00 in0.0 mm 0.07 in1.8 mm
06:20 AM 56.7°F13.7°C 52.6°F11.4°C 86% 10.3 mph SW16.6 kmh SW 12.0 mph19.3 kmh 29.83 in1010.2 mb - 0.00 in0.0 mm 0.07 in1.8 mm
06:10 AM 56.7°F13.7°C 52.9°F11.6°C 87% 10.0 mph SW16.1 kmh SW 10.0 mph16.1 kmh 29.83 in1010.2 mb - 0.00 in0.0 mm 0.07 in1.8 mm
06:00 AM 56.7°F13.7°C 52.5°F11.4°C 86% 11.9 mph WSW19.2 kmh WSW 14.0 mph22.5 kmh 29.82 in1009.8 mb - 0.00 in0.0 mm 0.07 in1.8 mm
05:50 AM 56.6°F13.7°C 52.5°F11.4°C 86% 8.9 mph SW14.3 kmh SW 13.0 mph20.9 kmh 29.82 in1009.8 mb - 0.00 in0.0 mm 0.07 in1.8 mm
05:40 AM 56.6°F13.7°C 52.5°F11.4°C 86% 10.8 mph SW17.4 kmh SW 14.0 mph22.5 kmh 29.82 in1009.8 mb - 0.00 in0.0 mm 0.07 in1.8 mm
05:30 AM 56.5°F13.6°C 52.7°F11.5°C 87% 10.7 mph SW17.2 kmh SW 14.0 mph22.5 kmh 29.82 in1009.8 mb - 0.00 in0.0 mm 0.07 in1.8 mm
05:20 AM 56.5°F13.6°C 52.7°F11.5°C 87% 10.3 mph SW16.6 kmh SW 14.0 mph22.5 kmh 29.82 in1009.8 mb - 0.00 in0.0 mm 0.07 in1.8 mm
05:10 AM 56.5°F13.6°C 52.7°F11.5°C 87% 11.3 mph S18.2 kmh S 15.0 mph24.1 kmh 29.83 in1010.2 mb - 0.00 in0.0 mm 0.07 in1.8 mm
05:00 AM 56.6°F13.7°C 52.5°F11.4°C 86% 11.2 mph SW18.0 kmh SW 15.0 mph24.1 kmh 29.82 in1009.8 mb - 0.00 in0.0 mm 0.07 in1.8 mm
04:50 AM 56.3°F13.5°C 53.1°F11.7°C 89% 9.1 mph SW14.6 kmh SW 18.0 mph29.0 kmh 29.82 in1009.8 mb - 0.00 in0.0 mm 0.07 in1.8 mm
04:40 AM 56.2°F13.4°C 53.0°F11.7°C 89% 10.3 mph SW16.6 kmh SW 12.0 mph19.3 kmh 29.81 in1009.5 mb - 0.00 in0.0 mm 0.07 in1.8 mm
04:30 AM 56.1°F13.4°C 53.2°F11.8°C 90% 5.3 mph S8.5 kmh S 13.0 mph20.9 kmh 29.81 in1009.5 mb - 0.00 in0.0 mm 0.07 in1.8 mm
04:20 AM 56.0°F13.3°C 53.1°F11.7°C 90% 9.4 mph WSW15.1 kmh WSW 12.0 mph19.3 kmh 29.81 in1009.5 mb - 0.00 in0.0 mm 0.07 in1.8 mm
04:10 AM 55.8°F13.2°C 53.2°F11.8°C 91% 8.6 mph SW13.8 kmh SW 13.0 mph20.9 kmh 29.81 in1009.5 mb - 0.00 in0.0 mm 0.07 in1.8 mm
04:00 AM 55.9°F13.3°C 53.3°F11.8°C 91% 8.7 mph SW14.0 kmh SW 11.0 mph17.7 kmh 29.81 in1009.5 mb - 0.00 in0.0 mm 0.07 in1.8 mm
03:50 AM 56.1°F13.4°C 53.5°F11.9°C 91% 6.9 mph SW11.1 kmh SW 11.0 mph17.7 kmh 29.81 in1009.5 mb - 0.00 in0.0 mm 0.07 in1.8 mm
03:40 AM 56.4°F13.6°C 53.8°F12.1°C 91% 8.0 mph SW12.9 kmh SW 12.0 mph19.3 kmh 29.81 in1009.5 mb - 0.00 in0.0 mm 0.07 in1.8 mm
03:30 AM 56.5°F13.6°C 54.2°F12.3°C 92% 6.8 mph SW10.9 kmh SW 9.0 mph14.5 kmh 29.81 in1009.5 mb - 0.00 in0.0 mm 0.07 in1.8 mm
03:20 AM 56.6°F13.7°C 54.3°F12.4°C 92% 8.6 mph SW13.8 kmh SW 12.0 mph19.3 kmh 29.81 in1009.5 mb - 0.00 in0.0 mm 0.07 in1.8 mm
03:10 AM 56.6°F13.7°C 54.3°F12.4°C 92% 11.2 mph SSW18.0 kmh SSW 12.0 mph19.3 kmh 29.81 in1009.5 mb - 0.00 in0.0 mm 0.07 in1.8 mm
03:00 AM 56.7°F13.7°C 54.4°F12.4°C 92% 10.6 mph SW17.1 kmh SW 15.0 mph24.1 kmh 29.81 in1009.5 mb - 0.00 in0.0 mm 0.07 in1.8 mm
02:50 AM 57.0°F13.9°C 54.7°F12.6°C 92% 7.2 mph WSW11.6 kmh WSW 8.0 mph12.9 kmh 29.81 in1009.5 mb - 0.00 in0.0 mm 0.07 in1.8 mm
02:40 AM 57.3°F14.1°C 55.0°F12.8°C 92% 7.2 mph SW11.6 kmh SW 8.0 mph12.9 kmh 29.80 in1009.1 mb - 0.00 in0.0 mm 0.07 in1.8 mm
02:30 AM 57.7°F14.3°C 55.4°F13.0°C 92% 5.6 mph SW9.0 kmh SW 7.0 mph11.3 kmh 29.80 in1009.1 mb - 0.00 in0.0 mm 0.07 in1.8 mm
02:20 AM 58.2°F14.6°C 55.6°F13.1°C 91% 8.7 mph SW14.0 kmh SW 11.0 mph17.7 kmh 29.81 in1009.5 mb - 0.00 in0.0 mm 0.07 in1.8 mm
02:10 AM 58.6°F14.8°C 56.3°F13.5°C 92% 9.2 mph SW14.8 kmh SW 12.0 mph19.3 kmh 29.81 in1009.5 mb - 0.00 in0.0 mm 0.07 in1.8 mm
02:00 AM 58.5°F14.7°C 56.8°F13.8°C 94% 5.7 mph SW9.2 kmh SW 7.0 mph11.3 kmh 29.81 in1009.5 mb - 0.00 in0.0 mm 0.07 in1.8 mm
01:50 AM 58.6°F14.8°C 56.8°F13.8°C 94% 4.5 mph WSW7.2 kmh WSW 7.0 mph11.3 kmh 29.80 in1009.1 mb - 0.00 in0.0 mm 0.07 in1.8 mm
01:40 AM 58.5°F14.7°C 56.8°F13.8°C 94% 4.5 mph SW7.2 kmh SW 5.0 mph8.0 kmh 29.80 in1009.1 mb - 0.00 in0.0 mm 0.07 in1.8 mm
01:30 AM 58.7°F14.8°C 57.0°F13.9°C 94% 3.4 mph SW5.5 kmh SW 5.0 mph8.0 kmh 29.80 in1009.1 mb - 0.00 in0.0 mm 0.07 in1.8 mm
01:20 AM 58.6°F14.8°C 57.2°F14.0°C 95% 5.9 mph SW9.5 kmh SW 7.0 mph11.3 kmh 29.80 in1009.1 mb - 0.00 in0.0 mm 0.07 in1.8 mm
01:10 AM 57.7°F14.3°C 56.3°F13.5°C 95% 3.8 mph SW6.1 kmh SW 6.0 mph9.7 kmh 29.80 in1009.1 mb - 0.00 in0.0 mm 0.07 in1.8 mm
01:00 AM 57.7°F14.3°C 56.3°F13.5°C 95% 3.1 mph SW5.0 kmh SW 7.0 mph11.3 kmh 29.80 in1009.1 mb - 0.01 in0.3 mm 0.07 in1.8 mm
12:50 AM 57.7°F14.3°C 56.3°F13.5°C 95% 1.0 mph SSW1.6 kmh SSW 5.0 mph8.0 kmh 29.79 in1008.8 mb - 0.00 in0.0 mm 0.06 in1.5 mm
12:40 AM 57.8°F14.3°C 56.4°F13.6°C 95% 1.4 mph SW2.3 kmh SW 3.0 mph4.8 kmh 29.79 in1008.8 mb - 0.01 in0.3 mm 0.06 in1.5 mm
12:30 AM 57.9°F14.4°C 56.5°F13.6°C 95% 0.6 mph ESE1.0 kmh ESE 1.0 mph1.6 kmh 29.79 in1008.8 mb - 0.00 in0.0 mm 0.06 in1.5 mm
12:20 AM 57.7°F14.3°C 56.0°F13.3°C 94% Calm Calm -- 29.79 in1008.8 mb - 0.00 in0.0 mm 0.06 in1.5 mm
12:10 AM 57.8°F14.3°C 56.1°F13.4°C 94% 0.5 mph ENE0.8 kmh ENE 1.0 mph1.6 kmh 29.79 in1008.8 mb - 0.00 in0.0 mm 0.06 in1.5 mm
12:00 AM 57.7°F14.3°C 56.0°F13.3°C 94% 0.3 mph N0.5 kmh N 1.0 mph1.6 kmh 29.79 in1008.8 mb - 0.01 in0.3 mm 0.06 in1.5 mm